sensor_id;sensor_type;location;lat;lon;timestamp;pressure;altitude;pressure_sealevel;temperature;humidity
53900;BME280;40509;32.858;-116.858;2023-05-16T00:01:10;98212.72;;;24.19;51.07
53900;BME280;40509;32.858;-116.858;2023-05-16T00:03:39;98213.19;;;24.22;50.53
53900;BME280;40509;32.858;-116.858;2023-05-16T00:06:08;98217.50;;;24.23;50.81
53900;BME280;40509;32.858;-116.858;2023-05-16T00:08:35;98213.88;;;24.24;50.89
53900;BME280;40509;32.858;-116.858;2023-05-16T00:11:05;98212.03;;;24.25;50.69
53900;BME280;40509;32.858;-116.858;2023-05-16T00:13:34;98209.25;;;24.27;50.82
53900;BME280;40509;32.858;-116.858;2023-05-16T00:16:02;98206.78;;;24.25;51.08
53900;BME280;40509;32.858;-116.858;2023-05-16T00:18:31;98204.81;;;24.27;51.04
53900;BME280;40509;32.858;-116.858;2023-05-16T00:20:59;98201.19;;;24.28;51.18
53900;BME280;40509;32.858;-116.858;2023-05-16T00:23:29;98197.53;;;24.29;50.83
53900;BME280;40509;32.858;-116.858;2023-05-16T00:26:06;98193.13;;;24.30;50.92
53900;BME280;40509;32.858;-116.858;2023-05-16T00:28:38;98195.59;;;24.31;51.27
53900;BME280;40509;32.858;-116.858;2023-05-16T00:31:12;98195.75;;;24.30;51.00
53900;BME280;40509;32.858;-116.858;2023-05-16T00:33:44;98183.19;;;24.32;51.35
53900;BME280;40509;32.858;-116.858;2023-05-16T00:36:13;98185.84;;;24.32;51.33
53900;BME280;40509;32.858;-116.858;2023-05-16T00:38:42;98184.88;;;24.33;51.32
53900;BME280;40509;32.858;-116.858;2023-05-16T00:41:10;98180.41;;;24.33;51.32
53900;BME280;40509;32.858;-116.858;2023-05-16T00:43:40;98180.09;;;24.28;51.18
53900;BME280;40509;32.858;-116.858;2023-05-16T00:46:08;98183.38;;;24.30;51.38
53900;BME280;40509;32.858;-116.858;2023-05-16T00:48:35;98178.59;;;24.34;51.23
53900;BME280;40509;32.858;-116.858;2023-05-16T00:51:03;98177.75;;;24.33;51.23
53900;BME280;40509;32.858;-116.858;2023-05-16T00:53:35;98180.22;;;24.35;51.59
53900;BME280;40509;32.858;-116.858;2023-05-16T00:56:04;98175.97;;;24.34;51.45
53900;BME280;40509;32.858;-116.858;2023-05-16T00:58:33;98174.13;;;24.34;51.31
53900;BME280;40509;32.858;-116.858;2023-05-16T01:01:00;98172.81;;;24.30;51.34
53900;BME280;40509;32.858;-116.858;2023-05-16T01:03:30;98186.50;;;24.26;50.29
53900;BME280;40509;32.858;-116.858;2023-05-16T01:05:59;98183.03;;;24.25;51.06
53900;BME280;40509;32.858;-116.858;2023-05-16T01:08:26;98187.16;;;24.28;50.50
53900;BME280;40509;32.858;-116.858;2023-05-16T01:13:40;98188.47;;;24.23;50.80
53900;BME280;40509;32.858;-116.858;2023-05-16T01:16:39;98193.59;;;24.33;50.79
53900;BME280;40509;32.858;-116.858;2023-05-16T01:22:05;98192.25;;;24.29;51.31
53900;BME280;40509;32.858;-116.858;2023-05-16T01:24:48;98186.34;;;24.35;50.95
53900;BME280;40509;32.858;-116.858;2023-05-16T01:27:23;98191.97;;;24.40;51.25
53900;BME280;40509;32.858;-116.858;2023-05-16T01:30:00;98190.16;;;24.41;51.45
53900;BME280;40509;32.858;-116.858;2023-05-16T01:32:27;98195.09;;;24.44;50.97
53900;BME280;40509;32.858;-116.858;2023-05-16T01:34:54;98198.56;;;24.45;51.23
53900;BME280;40509;32.858;-116.858;2023-05-16T01:37:32;98202.84;;;24.46;51.26
53900;BME280;40509;32.858;-116.858;2023-05-16T01:40:45;98206.97;;;24.48;51.37
53900;BME280;40509;32.858;-116.858;2023-05-16T01:43:13;98198.41;;;24.46;51.53
53900;BME280;40509;32.858;-116.858;2023-05-16T01:45:52;98197.41;;;24.47;51.50
53900;BME280;40509;32.858;-116.858;2023-05-16T01:48:25;98194.63;;;24.49;51.38
53900;BME280;40509;32.858;-116.858;2023-05-16T01:50:56;98194.63;;;24.49;51.18
53900;BME280;40509;32.858;-116.858;2023-05-16T01:53:31;98189.34;;;24.49;51.47
53900;BME280;40509;32.858;-116.858;2023-05-16T01:56:01;98199.38;;;24.45;51.33
53900;BME280;40509;32.858;-116.858;2023-05-16T01:58:33;98191.13;;;24.48;51.60
53900;BME280;40509;32.858;-116.858;2023-05-16T02:01:04;98185.03;;;24.48;51.45
53900;BME280;40509;32.858;-116.858;2023-05-16T02:03:32;98189.50;;;24.47;51.24
53900;BME280;40509;32.858;-116.858;2023-05-16T02:06:00;98189.63;;;24.46;51.55
53900;BME280;40509;32.858;-116.858;2023-05-16T02:08:28;98189.81;;;24.44;51.61
53900;BME280;40509;32.858;-116.858;2023-05-16T02:10:55;98188.00;;;24.45;51.34
53900;BME280;40509;32.858;-116.858;2023-05-16T02:13:22;98188.19;;;24.43;51.59
53900;BME280;40509;32.858;-116.858;2023-05-16T02:15:50;98188.50;;;24.40;51.81
53900;BME280;40509;32.858;-116.858;2023-05-16T02:18:18;98192.78;;;24.41;51.89
53900;BME280;40509;32.858;-116.858;2023-05-16T02:20:45;98194.59;;;24.40;51.83
53900;BME280;40509;32.858;-116.858;2023-05-16T02:23:13;98194.09;;;24.37;51.57
53900;BME280;40509;32.858;-116.858;2023-05-16T02:25:40;98198.41;;;24.38;51.87
53900;BME280;40509;32.858;-116.858;2023-05-16T02:28:09;98195.41;;;24.41;51.59
53900;BME280;40509;32.858;-116.858;2023-05-16T02:30:37;98202.34;;;24.42;51.91
53900;BME280;40509;32.858;-116.858;2023-05-16T02:33:04;98209.75;;;24.38;51.93
53900;BME280;40509;32.858;-116.858;2023-05-16T02:35:31;98217.69;;;24.38;51.66
53900;BME280;40509;32.858;-116.858;2023-05-16T02:37:59;98215.22;;;24.37;51.59
53900;BME280;40509;32.858;-116.858;2023-05-16T02:40:27;98212.06;;;24.33;52.19
53900;BME280;40509;32.858;-116.858;2023-05-16T02:42:55;98213.06;;;24.32;51.71
53900;BME280;40509;32.858;-116.858;2023-05-16T02:45:22;98203.00;;;24.28;52.07
53900;BME280;40509;32.858;-116.858;2023-05-16T02:47:50;98205.63;;;24.28;51.91
53900;BME280;40509;32.858;-116.858;2023-05-16T02:50:18;98195.06;;;24.28;52.17
53900;BME280;40509;32.858;-116.858;2023-05-16T02:52:46;98196.91;;;24.27;52.04
53900;BME280;40509;32.858;-116.858;2023-05-16T02:55:13;98194.25;;;24.27;51.85
53900;BME280;40509;32.858;-116.858;2023-05-16T02:57:41;98203.97;;;24.27;52.13
53900;BME280;40509;32.858;-116.858;2023-05-16T03:00:11;98198.69;;;24.27;52.26
53900;BME280;40509;32.858;-116.858;2023-05-16T03:02:39;98202.00;;;24.29;52.18
53900;BME280;40509;32.858;-116.858;2023-05-16T03:05:07;98203.16;;;24.26;52.02
53900;BME280;40509;32.858;-116.858;2023-05-16T03:07:35;98212.56;;;24.29;51.75
53900;BME280;40509;32.858;-116.858;2023-05-16T03:10:05;98208.44;;;24.26;51.86
53900;BME280;40509;32.858;-116.858;2023-05-16T03:12:32;98213.88;;;24.24;52.24
53900;BME280;40509;32.858;-116.858;2023-05-16T03:15:00;98218.31;;;24.24;52.33
53900;BME280;40509;32.858;-116.858;2023-05-16T03:17:27;98219.16;;;24.24;52.27
53900;BME280;40509;32.858;-116.858;2023-05-16T03:19:54;98225.56;;;24.22;52.27
53900;BME280;40509;32.858;-116.858;2023-05-16T03:22:22;98224.88;;;24.20;52.28
53900;BME280;40509;32.858;-116.858;2023-05-16T03:24:49;98237.25;;;24.19;52.19
53900;BME280;40509;32.858;-116.858;2023-05-16T03:27:16;98233.81;;;24.19;52.57
53900;BME280;40509;32.858;-116.858;2023-05-16T03:29:43;98242.53;;;24.19;52.44
53900;BME280;40509;32.858;-116.858;2023-05-16T03:32:11;98239.91;;;24.19;52.09
53900;BME280;40509;32.858;-116.858;2023-05-16T03:34:38;98237.25;;;24.19;52.54
53900;BME280;40509;32.858;-116.858;2023-05-16T03:37:07;98236.63;;;24.17;52.20
53900;BME280;40509;32.858;-116.858;2023-05-16T03:39:36;98242.53;;;24.19;52.36
53900;BME280;40509;32.858;-116.858;2023-05-16T03:42:04;98247.16;;;24.17;52.10
53900;BME280;40509;32.858;-116.858;2023-05-16T03:44:31;98252.44;;;24.17;52.21
53900;BME280;40509;32.858;-116.858;2023-05-16T03:46:59;98245.19;;;24.19;52.06
53900;BME280;40509;32.858;-116.858;2023-05-16T03:49:26;98258.69;;;24.16;52.54
53900;BME280;40509;32.858;-116.858;2023-05-16T03:51:56;98262.16;;;24.17;52.56
53900;BME280;40509;32.858;-116.858;2023-05-16T03:54:24;98276.31;;;24.16;52.51
53900;BME280;40509;32.858;-116.858;2023-05-16T03:56:51;98264.94;;;24.15;52.56
53900;BME280;40509;32.858;-116.858;2023-05-16T03:59:18;98269.25;;;24.16;52.18
53900;BME280;40509;32.858;-116.858;2023-05-16T04:01:46;98280.44;;;24.18;52.36
53900;BME280;40509;32.858;-116.858;2023-05-16T04:04:13;98277.97;;;24.17;52.50
53900;BME280;40509;32.858;-116.858;2023-05-16T04:06:40;98278.94;;;24.16;52.57
53900;BME280;40509;32.858;-116.858;2023-05-16T04:09:08;98282.44;;;24.16;52.26
53900;BME280;40509;32.858;-116.858;2023-05-16T04:11:35;98280.78;;;24.15;52.46
53900;BME280;40509;32.858;-116.858;2023-05-16T04:14:04;98284.09;;;24.17;52.03
53900;BME280;40509;32.858;-116.858;2023-05-16T04:16:31;98279.78;;;24.16;51.95
53900;BME280;40509;32.858;-116.858;2023-05-16T04:18:58;98288.69;;;24.15;52.46
53900;BME280;40509;32.858;-116.858;2023-05-16T04:21:25;98289.00;;;24.12;52.37
53900;BME280;40509;32.858;-116.858;2023-05-16T04:23:53;98286.38;;;24.12;52.49
53900;BME280;40509;32.858;-116.858;2023-05-16T04:26:20;98285.19;;;24.06;52.57
53900;BME280;40509;32.858;-116.858;2023-05-16T04:28:50;98284.72;;;24.11;52.07
53900;BME280;40509;32.858;-116.858;2023-05-16T04:31:17;98286.66;;;24.09;52.14
53900;BME280;40509;32.858;-116.858;2023-05-16T04:33:44;98284.03;;;24.09;52.48
53900;BME280;40509;32.858;-116.858;2023-05-16T04:36:12;98284.72;;;24.11;52.15
53900;BME280;40509;32.858;-116.858;2023-05-16T04:38:40;98290.00;;;24.11;52.27
53900;BME280;40509;32.858;-116.858;2023-05-16T04:41:07;98288.34;;;24.10;52.21
53900;BME280;40509;32.858;-116.858;2023-05-16T04:43:35;98288.50;;;24.08;52.51
53900;BME280;40509;32.858;-116.858;2023-05-16T04:46:02;98281.56;;;24.07;52.44
53900;BME280;40509;32.858;-116.858;2023-05-16T04:48:29;98273.78;;;23.98;52.77
53900;BME280;40509;32.858;-116.858;2023-05-16T04:50:57;98279.72;;;24.00;52.75
53900;BME280;40509;32.858;-116.858;2023-05-16T04:53:25;98281.03;;;23.96;52.31
53900;BME280;40509;32.858;-116.858;2023-05-16T04:55:52;98286.34;;;24.04;52.14
53900;BME280;40509;32.858;-116.858;2023-05-16T04:58:20;98279.56;;;24.01;52.36
53900;BME280;40509;32.858;-116.858;2023-05-16T05:00:53;98274.78;;;24.05;52.18
53900;BME280;40509;32.858;-116.858;2023-05-16T05:03:21;98269.69;;;24.03;51.99
53900;BME280;40509;32.858;-116.858;2023-05-16T05:05:48;98268.53;;;24.06;52.11
53900;BME280;40509;32.858;-116.858;2023-05-16T05:08:16;98258.47;;;24.01;52.42
53900;BME280;40509;32.858;-116.858;2023-05-16T05:10:43;98260.78;;;24.04;52.00
53900;BME280;40509;32.858;-116.858;2023-05-16T05:13:10;98261.75;;;24.03;52.30
53900;BME280;40509;32.858;-116.858;2023-05-16T05:15:38;98253.69;;;24.05;52.24
53900;BME280;40509;32.858;-116.858;2023-05-16T05:18:05;98253.19;;;24.01;51.99
53900;BME280;40509;32.858;-116.858;2023-05-16T05:20:33;98250.72;;;24.00;52.19
53900;BME280;40509;32.858;-116.858;2023-05-16T05:23:00;98241.69;;;24.02;52.11
53900;BME280;40509;32.858;-116.858;2023-05-16T05:25:27;98246.28;;;24.00;52.25
53900;BME280;40509;32.858;-116.858;2023-05-16T05:27:55;98249.06;;;23.99;52.15
53900;BME280;40509;32.858;-116.858;2023-05-16T05:30:22;98255.31;;;23.98;52.03
53900;BME280;40509;32.858;-116.858;2023-05-16T05:32:49;98253.66;;;23.97;52.16
53900;BME280;40509;32.858;-116.858;2023-05-16T05:35:17;98248.75;;;24.02;51.66
53900;BME280;40509;32.858;-116.858;2023-05-16T05:37:44;98250.72;;;24.00;51.63
53900;BME280;40509;32.858;-116.858;2023-05-16T05:40:12;98243.78;;;23.99;51.66
53900;BME280;40509;32.858;-116.858;2023-05-16T05:42:39;98237.50;;;23.92;52.22
53900;BME280;40509;32.858;-116.858;2023-05-16T05:45:07;98231.59;;;23.98;51.69
53900;BME280;40509;32.858;-116.858;2023-05-16T05:47:34;98229.78;;;23.98;52.01
53900;BME280;40509;32.858;-116.858;2023-05-16T05:50:02;98233.41;;;23.97;51.84
53900;BME280;40509;32.858;-116.858;2023-05-16T05:52:29;98233.88;;;23.93;51.84
53900;BME280;40509;32.858;-116.858;2023-05-16T05:54:56;98229.28;;;23.95;52.02
53900;BME280;40509;32.858;-116.858;2023-05-16T05:57:25;98229.13;;;23.96;51.92
53900;BME280;40509;32.858;-116.858;2023-05-16T05:59:52;98220.53;;;23.94;51.82
53900;BME280;40509;32.858;-116.858;2023-05-16T06:02:20;98219.38;;;23.97;51.29
53900;BME280;40509;32.858;-116.858;2023-05-16T06:04:47;98218.41;;;23.98;51.48
53900;BME280;40509;32.858;-116.858;2023-05-16T06:07:14;98217.59;;;23.97;51.33
53900;BME280;40509;32.858;-116.858;2023-05-16T06:09:42;98218.06;;;23.93;51.38
53900;BME280;40509;32.858;-116.858;2023-05-16T06:12:09;98221.38;;;23.95;51.57
53900;BME280;40509;32.858;-116.858;2023-05-16T06:14:36;98214.75;;;23.90;51.35
53900;BME280;40509;32.858;-116.858;2023-05-16T06:17:04;98220.63;;;23.84;51.83
53900;BME280;40509;32.858;-116.858;2023-05-16T06:19:31;98219.66;;;23.85;51.56
53900;BME280;40509;32.858;-116.858;2023-05-16T06:21:58;98218.97;;;23.83;51.73
53900;BME280;40509;32.858;-116.858;2023-05-16T06:24:25;98219.97;;;23.82;51.37
53900;BME280;40509;32.858;-116.858;2023-05-16T06:26:55;98219.97;;;23.82;51.84
53900;BME280;40509;32.858;-116.858;2023-05-16T06:29:22;98219.97;;;23.82;51.43
53900;BME280;40509;32.858;-116.858;2023-05-16T06:31:49;98215.69;;;23.81;51.44
53900;BME280;40509;32.858;-116.858;2023-05-16T06:34:17;98211.56;;;23.79;51.73
53900;BME280;40509;32.858;-116.858;2023-05-16T06:36:44;98216.81;;;23.79;51.30
53900;BME280;40509;32.858;-116.858;2023-05-16T06:39:11;98214.34;;;23.77;51.28
53900;BME280;40509;32.858;-116.858;2023-05-16T06:41:39;98210.75;;;23.78;51.52
53900;BME280;40509;32.858;-116.858;2023-05-16T06:44:06;98214.81;;;23.72;51.36
53900;BME280;40509;32.858;-116.858;2023-05-16T06:46:33;98205.63;;;23.77;51.10
53900;BME280;40509;32.858;-116.858;2023-05-16T06:49:00;98193.25;;;23.77;51.51
53900;BME280;40509;32.858;-116.858;2023-05-16T06:51:28;98192.28;;;23.78;51.22
53900;BME280;40509;32.858;-116.858;2023-05-16T06:53:55;98191.44;;;23.78;51.41
53900;BME280;40509;32.858;-116.858;2023-05-16T06:56:23;98187.31;;;23.75;51.30
53900;BME280;40509;32.858;-116.858;2023-05-16T06:58:50;98175.28;;;23.72;51.04
53900;BME280;40509;32.858;-116.858;2023-05-16T07:01:17;98175.75;;;23.68;51.22
53900;BME280;40509;32.858;-116.858;2023-05-16T07:03:45;98174.78;;;23.69;51.39
53900;BME280;40509;32.858;-116.858;2023-05-16T07:06:12;98177.25;;;23.70;51.26
53900;BME280;40509;32.858;-116.858;2023-05-16T07:08:39;98177.59;;;23.67;51.42
53900;BME280;40509;32.858;-116.858;2023-05-16T07:11:07;98175.75;;;23.68;51.08
53900;BME280;40509;32.858;-116.858;2023-05-16T07:13:34;98174.09;;;23.67;51.47
53900;BME280;40509;32.858;-116.858;2023-05-16T07:16:02;98170.97;;;23.63;51.43
53900;BME280;40509;32.858;-116.858;2023-05-16T07:18:29;98174.75;;;23.61;51.08
53900;BME280;40509;32.858;-116.858;2023-05-16T07:20:57;98165.03;;;23.61;51.43
53900;BME280;40509;32.858;-116.858;2023-05-16T07:23:24;98162.56;;;23.60;51.39
53900;BME280;40509;32.858;-116.858;2023-05-16T07:25:52;98164.69;;;23.56;51.49
53900;BME280;40509;32.858;-116.858;2023-05-16T07:28:19;98167.63;;;23.53;51.51
53900;BME280;40509;32.858;-116.858;2023-05-16T07:30:47;98172.56;;;23.56;51.18
53900;BME280;40509;32.858;-116.858;2023-05-16T07:33:14;98172.91;;;23.53;51.13
53900;BME280;40509;32.858;-116.858;2023-05-16T07:35:42;98170.59;;;23.50;51.18
53900;BME280;40509;32.858;-116.858;2023-05-16T07:38:09;98165.16;;;23.51;50.97
53900;BME280;40509;32.858;-116.858;2023-05-16T07:40:37;98168.78;;;23.50;51.44
53900;BME280;40509;32.858;-116.858;2023-05-16T07:43:05;98165.31;;;23.50;50.94
53900;BME280;40509;32.858;-116.858;2023-05-16T07:45:32;98150.66;;;23.47;51.09
53900;BME280;40509;32.858;-116.858;2023-05-16T07:47:59;98152.31;;;23.48;51.04
53900;BME280;40509;32.858;-116.858;2023-05-16T07:50:27;98156.09;;;23.46;50.99
53900;BME280;40509;32.858;-116.858;2023-05-16T07:52:54;98155.72;;;23.40;51.36
53900;BME280;40509;32.858;-116.858;2023-05-16T07:55:22;98144.38;;;23.40;51.05
53900;BME280;40509;32.858;-116.858;2023-05-16T07:57:49;98147.00;;;23.40;51.54
53900;BME280;40509;32.858;-116.858;2023-05-16T08:00:17;98146.31;;;23.38;51.26
53900;BME280;40509;32.858;-116.858;2023-05-16T08:02:45;98142.03;;;23.37;51.41
53900;BME280;40509;32.858;-116.858;2023-05-16T08:05:12;98147.13;;;23.38;51.35
53900;BME280;40509;32.858;-116.858;2023-05-16T08:07:39;98143.69;;;23.38;51.19
53900;BME280;40509;32.858;-116.858;2023-05-16T08:10:07;98137.09;;;23.34;51.33
53900;BME280;40509;32.858;-116.858;2023-05-16T08:12:34;98143.50;;;23.31;51.48
53900;BME280;40509;32.858;-116.858;2023-05-16T08:15:02;98139.56;;;23.35;51.37
53900;BME280;40509;32.858;-116.858;2023-05-16T08:17:30;98145.16;;;23.32;51.28
53900;BME280;40509;32.858;-116.858;2023-05-16T08:19:57;98145.00;;;23.34;50.82
53900;BME280;40509;32.858;-116.858;2023-05-16T08:22:27;98133.78;;;23.32;50.96
53900;BME280;40509;32.858;-116.858;2023-05-16T08:24:54;98123.56;;;23.29;51.29
53900;BME280;40509;32.858;-116.858;2023-05-16T08:27:27;98121.78;;;23.29;50.93
53900;BME280;40509;32.858;-116.858;2023-05-16T08:29:55;98121.91;;;23.28;51.06
53900;BME280;40509;32.858;-116.858;2023-05-16T08:32:22;98122.75;;;23.28;51.18
53900;BME280;40509;32.858;-116.858;2023-05-16T08:34:49;98109.06;;;23.24;50.91
53900;BME280;40509;32.858;-116.858;2023-05-16T08:37:16;98117.63;;;23.27;50.85
53900;BME280;40509;32.858;-116.858;2023-05-16T08:39:43;98109.38;;;23.21;50.92
53900;BME280;40509;32.858;-116.858;2023-05-16T08:42:11;98109.22;;;23.23;50.84
53900;BME280;40509;32.858;-116.858;2023-05-16T08:44:39;98119.75;;;23.23;51.09
53900;BME280;40509;32.858;-116.858;2023-05-16T08:47:11;98116.59;;;23.19;51.18
53900;BME280;40509;32.858;-116.858;2023-05-16T08:49:42;98119.56;;;23.16;51.23
53900;BME280;40509;32.858;-116.858;2023-05-16T08:52:11;98120.06;;;23.20;51.11
53900;BME280;40509;32.858;-116.858;2023-05-16T08:54:39;98108.69;;;23.19;51.06
53900;BME280;40509;32.858;-116.858;2023-05-16T08:57:08;98104.13;;;23.21;50.77
53900;BME280;40509;32.858;-116.858;2023-05-16T08:59:35;98107.53;;;23.14;50.77
53900;BME280;40509;32.858;-116.858;2023-05-16T09:02:04;98109.84;;;23.17;50.60
53900;BME280;40509;32.858;-116.858;2023-05-16T09:04:32;98106.84;;;23.12;50.79
53900;BME280;40509;32.858;-116.858;2023-05-16T09:07:00;98109.75;;;23.08;51.28
53900;BME280;40509;32.858;-116.858;2023-05-16T09:09:27;98106.00;;;23.11;50.70
53900;BME280;40509;32.858;-116.858;2023-05-16T09:11:55;98087.88;;;23.08;51.11
53900;BME280;40509;32.858;-116.858;2023-05-16T09:14:22;98094.13;;;23.07;50.95
53900;BME280;40509;32.858;-116.858;2023-05-16T09:17:07;98089.53;;;23.09;50.60
53900;BME280;40509;32.858;-116.858;2023-05-16T09:19:38;98095.09;;;23.06;50.54
53900;BME280;40509;32.858;-116.858;2023-05-16T09:22:10;98083.75;;;23.05;50.34
53900;BME280;40509;32.858;-116.858;2023-05-16T09:24:42;98080.97;;;23.07;50.83
53900;BME280;40509;32.858;-116.858;2023-05-16T09:27:12;98066.47;;;23.03;51.01
53900;BME280;40509;32.858;-116.858;2023-05-16T09:29:41;98056.91;;;23.02;50.69
53900;BME280;40509;32.858;-116.858;2023-05-16T09:32:13;98047.06;;;23.04;50.69
53900;BME280;40509;32.858;-116.858;2023-05-16T09:34:48;98051.16;;;22.98;50.91
53900;BME280;40509;32.858;-116.858;2023-05-16T09:37:15;98039.78;;;22.98;50.88
53900;BME280;40509;32.858;-116.858;2023-05-16T09:39:48;98043.53;;;22.95;50.95
53900;BME280;40509;32.858;-116.858;2023-05-16T09:42:17;98051.16;;;22.98;50.58
53900;BME280;40509;32.858;-116.858;2023-05-16T09:44:52;98059.22;;;22.97;50.76
53900;BME280;40509;32.858;-116.858;2023-05-16T09:47:20;98058.22;;;22.98;50.49
53900;BME280;40509;32.858;-116.858;2023-05-16T09:49:52;98062.97;;;22.94;50.76
53900;BME280;40509;32.858;-116.858;2023-05-16T09:52:19;98071.38;;;22.98;50.29
53900;BME280;40509;32.858;-116.858;2023-05-16T09:54:47;98070.72;;;22.96;50.49
53900;BME280;40509;32.858;-116.858;2023-05-16T09:57:19;98073.66;;;22.93;50.67
53900;BME280;40509;32.858;-116.858;2023-05-16T09:59:47;98079.06;;;22.91;50.63
53900;BME280;40509;32.858;-116.858;2023-05-16T10:02:15;98087.81;;;22.92;50.95
53900;BME280;40509;32.858;-116.858;2023-05-16T10:04:42;98086.16;;;22.90;50.88
53900;BME280;40509;32.858;-116.858;2023-05-16T10:07:09;98080.22;;;22.88;50.94
53900;BME280;40509;32.858;-116.858;2023-05-16T10:09:38;98077.59;;;22.88;50.47
53900;BME280;40509;32.858;-116.858;2023-05-16T10:12:07;98069.84;;;22.87;50.83
53900;BME280;40509;32.858;-116.858;2023-05-16T10:14:38;98074.28;;;22.86;50.74
53900;BME280;40509;32.858;-116.858;2023-05-16T10:17:07;98070.84;;;22.86;50.53
53900;BME280;40509;32.858;-116.858;2023-05-16T10:19:38;98067.53;;;22.84;50.61
53900;BME280;40509;32.858;-116.858;2023-05-16T10:22:06;98057.97;;;22.83;50.44
53900;BME280;40509;32.858;-116.858;2023-05-16T10:24:50;98050.91;;;22.83;50.58
53900;BME280;40509;32.858;-116.858;2023-05-16T10:27:21;98054.69;;;22.81;50.59
53900;BME280;40509;32.858;-116.858;2023-05-16T10:29:49;98051.53;;;22.77;50.67
53900;BME280;40509;32.858;-116.858;2023-05-16T10:32:18;98047.91;;;22.78;50.17
53900;BME280;40509;32.858;-116.858;2023-05-16T10:34:46;98044.47;;;22.78;50.63
53900;BME280;40509;32.858;-116.858;2023-05-16T10:37:14;98043.94;;;22.74;50.40
53900;BME280;40509;32.858;-116.858;2023-05-16T10:39:41;98042.97;;;22.75;50.15
53900;BME280;40509;32.858;-116.858;2023-05-16T10:42:09;98042.28;;;22.73;50.39
53900;BME280;40509;32.858;-116.858;2023-05-16T10:44:38;98041.47;;;22.72;49.95
53900;BME280;40509;32.858;-116.858;2023-05-16T10:47:06;98040.78;;;22.70;50.54
53900;BME280;40509;32.858;-116.858;2023-05-16T10:49:33;98047.88;;;22.70;50.46
53900;BME280;40509;32.858;-116.858;2023-05-16T10:52:10;98042.63;;;22.70;50.49
53900;BME280;40509;32.858;-116.858;2023-05-16T10:54:52;98042.78;;;22.68;50.62
53900;BME280;40509;32.858;-116.858;2023-05-16T10:57:22;98041.13;;;22.67;50.60
53900;BME280;40509;32.858;-116.858;2023-05-16T10:59:50;98041.94;;;22.68;50.01
53900;BME280;40509;32.858;-116.858;2023-05-16T11:02:23;98034.34;;;22.65;50.47
53900;BME280;40509;32.858;-116.858;2023-05-16T11:04:52;98030.06;;;22.64;50.07
53900;BME280;40509;32.858;-116.858;2023-05-16T11:07:20;98032.91;;;22.70;50.38
53900;BME280;40509;32.858;-116.858;2023-05-16T11:10:08;98029.41;;;22.62;50.27
53900;BME280;40509;32.858;-116.858;2023-05-16T11:12:37;98034.69;;;22.62;50.30
53900;BME280;40509;32.858;-116.858;2023-05-16T11:15:25;98025.94;;;22.61;50.64
53900;BME280;40509;32.858;-116.858;2023-05-16T11:18:07;98027.09;;;22.59;50.55
53900;BME280;40509;32.858;-116.858;2023-05-16T11:20:36;98041.06;;;22.59;50.02
53900;BME280;40509;32.858;-116.858;2023-05-16T11:25:48;98031.34;;;22.60;50.25
53900;BME280;40509;32.858;-116.858;2023-05-16T11:28:17;98033.34;;;22.58;50.52
53900;BME280;40509;32.858;-116.858;2023-05-16T11:30:51;98024.25;;;22.52;50.70
53900;BME280;40509;32.858;-116.858;2023-05-16T11:33:21;98023.94;;;22.55;50.36
53900;BME280;40509;32.858;-116.858;2023-05-16T11:36:05;98025.88;;;22.53;50.11
53900;BME280;40509;32.858;-116.858;2023-05-16T11:38:33;98032.66;;;22.55;50.18
53900;BME280;40509;32.858;-116.858;2023-05-16T11:41:05;98028.06;;;22.58;50.12
53900;BME280;40509;32.858;-116.858;2023-05-16T11:43:40;98033.28;;;22.49;50.49
53900;BME280;40509;32.858;-116.858;2023-05-16T11:46:13;98025.88;;;22.53;50.13
53900;BME280;40509;32.858;-116.858;2023-05-16T11:48:40;98024.41;;;22.50;50.21
53900;BME280;40509;32.858;-116.858;2023-05-16T11:51:08;98030.66;;;22.49;50.13
53900;BME280;40509;32.858;-116.858;2023-05-16T11:53:36;98026.06;;;22.51;50.04
53900;BME280;40509;32.858;-116.858;2023-05-16T11:56:06;98029.00;;;22.48;50.32
53900;BME280;40509;32.858;-116.858;2023-05-16T11:58:34;98030.81;;;22.48;50.11
53900;BME280;40509;32.858;-116.858;2023-05-16T12:01:04;98023.22;;;22.45;50.12
53900;BME280;40509;32.858;-116.858;2023-05-16T12:03:31;98026.38;;;22.48;49.91
53900;BME280;40509;32.858;-116.858;2023-05-16T12:06:00;98022.25;;;22.46;49.98
53900;BME280;40509;32.858;-116.858;2023-05-16T12:08:28;98023.22;;;22.45;49.98
53900;BME280;40509;32.858;-116.858;2023-05-16T12:10:56;98024.34;;;22.42;50.28
53900;BME280;40509;32.858;-116.858;2023-05-16T12:13:24;98030.91;;;22.38;50.12
53900;BME280;40509;32.858;-116.858;2023-05-16T12:15:51;98035.03;;;22.40;49.76
53900;BME280;40509;32.858;-116.858;2023-05-16T12:18:19;98025.47;;;22.39;50.34
53900;BME280;40509;32.858;-116.858;2023-05-16T12:20:47;98026.31;;;22.40;50.35
53900;BME280;40509;32.858;-116.858;2023-05-16T12:23:15;98031.91;;;22.37;50.39
53900;BME280;40509;32.858;-116.858;2023-05-16T12:25:46;98040.59;;;22.37;50.01
53900;BME280;40509;32.858;-116.858;2023-05-16T12:28:15;98042.41;;;22.37;50.23
53900;BME280;40509;32.858;-116.858;2023-05-16T12:30:43;98037.28;;;22.35;50.38
53900;BME280;40509;32.858;-116.858;2023-05-16T12:33:14;98051.28;;;22.36;49.83
53900;BME280;40509;32.858;-116.858;2023-05-16T12:35:44;98057.88;;;22.40;49.63
53900;BME280;40509;32.858;-116.858;2023-05-16T12:38:13;98047.53;;;22.38;49.74
53900;BME280;40509;32.858;-116.858;2023-05-16T12:40:42;98043.22;;;22.37;49.83
53900;BME280;40509;32.858;-116.858;2023-05-16T12:43:14;98051.56;;;22.33;50.11
53900;BME280;40509;32.858;-116.858;2023-05-16T12:45:49;98058.44;;;22.34;50.24
53900;BME280;40509;32.858;-116.858;2023-05-16T12:48:17;98047.94;;;22.34;50.04